Time;durP1;ratioP1;P1;durP2;ratioP2;P2;SDS_P1;SDS_P2;PMS_P1;PMS_P2;Temp;Humidity;BMP_temperature;BMP_pressure;BME280_temperature;BME280_humidity;BME280_pressure;Samples;Min_cycle;Max_cycle;Signal;HPM_P1;HPM_P2
2023/09/13 00:02:30;;;;;;;7.18;5.50;;;;;;;;;;5817532;28;20042;-74
2023/09/13 00:05:21;;;;;;;14.07;5.03;;;;;;;;;;5818798;28;20391;-73
2023/09/13 00:08:12;;;;;;;5.80;4.70;;;;;;;;;;5817499;28;20548;-74
2023/09/13 00:11:06;;;;;;;7.28;5.05;;;;;;;;;;5818836;28;20053;-75
2023/09/13 00:13:56;;;;;;;6.85;5.35;;;;;;;;;;5819325;28;20512;-75
2023/09/13 00:16:47;;;;;;;8.43;6.03;;;;;;;;;;5818784;28;20057;-74
2023/09/13 00:19:38;;;;;;;7.00;5.07;;;;;;;;;;5818650;28;20061;-75
2023/09/13 00:22:28;;;;;;;9.20;4.90;;;;;;;;;;5818655;28;20441;-74
2023/09/13 00:25:19;;;;;;;5.55;4.13;;;;;;;;;;5818399;28;20050;-76
2023/09/13 00:28:10;;;;;;;7.28;5.50;;;;;;;;;;5818253;28;20413;-75
2023/09/13 00:31:01;;;;;;;10.98;4.70;;;;;;;;;;5818638;28;20493;-75
2023/09/13 00:33:52;;;;;;;12.95;6.68;;;;;;;;;;5818698;28;20042;-76
2023/09/13 00:36:43;;;;;;;7.57;5.10;;;;;;;;;;5818459;28;20053;-76
2023/09/13 00:39:34;;;;;;;9.70;5.07;;;;;;;;;;5818176;28;20054;-74
2023/09/13 00:42:24;;;;;;;14.60;6.72;;;;;;;;;;5818302;28;20042;-75
2023/09/13 00:45:15;;;;;;;8.30;5.47;;;;;;;;;;5816976;28;20038;-74
2023/09/13 00:48:07;;;;;;;5.72;4.55;;;;;;;;;;5817074;28;20039;-76
2023/09/13 00:50:59;;;;;;;7.22;5.15;;;;;;;;;;5818878;28;20042;-73
2023/09/13 00:53:50;;;;;;;5.88;4.32;;;;;;;;;;5822088;28;20121;-74
2023/09/13 00:56:41;;;;;;;9.73;5.10;;;;;;;;;;5805626;28;20046;-75
2023/09/13 00:59:33;;;;;;;6.47;4.43;;;;;;;;;;5821605;28;20466;-75
2023/09/13 01:02:24;;;;;;;11.95;6.00;;;;;;;;;;5822657;28;20078;-75
2023/09/13 01:05:16;;;;;;;9.10;5.57;;;;;;;;;;5822784;28;20082;-82
2023/09/13 01:08:07;;;;;;;9.68;4.68;;;;;;;;;;5821407;28;20453;-74
2023/09/13 01:10:58;;;;;;;12.35;5.43;;;;;;;;;;5823233;28;20042;-74
2023/09/13 01:13:49;;;;;;;8.38;4.28;;;;;;;;;;5822604;28;20045;-76
2023/09/13 01:17:17;;;;;;;8.40;5.20;;;;;;;;;;5822348;28;20042;-74
2023/09/13 01:20:21;;;;;;;8.40;4.45;;;;;;;;;;5820873;28;20042;-74
2023/09/13 01:23:30;;;;;;;5.35;4.15;;;;;;;;;;5821005;28;20053;-74
2023/09/13 01:26:46;;;;;;;;;;;;;;;;;;5822747;28;20061;-74
2023/09/13 01:29:38;;;;;;;7.82;4.72;;;;;;;;;;5822243;28;19921;-74
2023/09/13 01:32:32;;;;;;;4.47;3.58;;;;;;;;;;5820989;28;20158;-75
2023/09/13 01:35:23;;;;;;;6.22;4.47;;;;;;;;;;5820921;28;20053;-75
2023/09/13 01:38:14;;;;;;;10.45;4.63;;;;;;;;;;5820723;28;20050;-74
2023/09/13 01:41:14;;;;;;;8.27;4.43;;;;;;;;;;5804602;28;20050;-74
2023/09/13 01:44:06;;;;;;;9.30;4.72;;;;;;;;;;5821874;28;20051;-75
2023/09/13 01:46:58;;;;;;;5.03;4.30;;;;;;;;;;5821011;28;20470;-75
2023/09/13 01:49:50;;;;;;;5.50;4.13;;;;;;;;;;5820577;28;20053;-75
2023/09/13 01:52:41;;;;;;;3.85;3.35;;;;;;;;;;5821684;28;20417;-75
2023/09/13 01:55:35;;;;;;;6.22;3.92;;;;;;;;;;5821701;28;20046;-75
2023/09/13 01:58:26;;;;;;;6.97;4.47;;;;;;;;;;5820274;28;20068;-74
2023/09/13 02:01:17;;;;;;;7.28;4.32;;;;;;;;;;5821542;28;20046;-74
2023/09/13 02:04:08;;;;;;;5.40;4.15;;;;;;;;;;5820005;28;20089;-74
2023/09/13 02:07:03;;;;;;;10.25;4.60;;;;;;;;;;5821911;28;20053;-73
2023/09/13 02:09:54;;;;;;;7.50;4.53;;;;;;;;;;5821672;28;20330;-73
2023/09/13 02:12:44;;;;;;;5.65;3.95;;;;;;;;;;5821349;28;20046;-75
2023/09/13 02:15:39;;;;;;;8.48;3.95;;;;;;;;;;5821493;28;20046;-75
2023/09/13 02:18:31;;;;;;;4.25;3.53;;;;;;;;;;5821387;28;20698;-74
2023/09/13 02:21:21;;;;;;;7.40;4.07;;;;;;;;;;5821313;28;20054;-75
2023/09/13 02:24:12;;;;;;;5.20;4.38;;;;;;;;;;5820717;28;20057;-75
2023/09/13 02:27:03;;;;;;;4.38;3.95;;;;;;;;;;5820883;28;20058;-77
2023/09/13 02:29:54;;;;;;;6.55;4.95;;;;;;;;;;5821440;28;20046;-75
2023/09/13 02:32:44;;;;;;;4.13;3.42;;;;;;;;;;5820939;28;20077;-75
2023/09/13 02:35:35;;;;;;;5.18;3.15;;;;;;;;;;5820930;28;20129;-74
2023/09/13 02:38:26;;;;;;;8.65;4.30;;;;;;;;;;5820740;28;20045;-74
2023/09/13 02:41:17;;;;;;;4.57;3.95;;;;;;;;;;5820805;28;20409;-74
2023/09/13 02:44:08;;;;;;;11.65;3.83;;;;;;;;;;5820380;28;20046;-74
2023/09/13 02:47:00;;;;;;;12.38;5.32;;;;;;;;;;5820940;28;20647;-74
2023/09/13 02:49:51;;;;;;;3.63;2.92;;;;;;;;;;5811610;28;20042;-74
2023/09/13 02:52:41;;;;;;;6.35;3.58;;;;;;;;;;5820469;28;20046;-75
2023/09/13 02:55:32;;;;;;;4.60;3.55;;;;;;;;;;5820331;28;20066;-74
2023/09/13 02:58:23;;;;;;;6.50;3.92;;;;;;;;;;5820432;28;20042;-76
2023/09/13 03:01:14;;;;;;;4.97;4.18;;;;;;;;;;5818970;28;20042;-75
2023/09/13 03:04:05;;;;;;;5.18;3.40;;;;;;;;;;5820343;28;20564;-74
2023/09/13 03:06:56;;;;;;;5.43;3.88;;;;;;;;;;5820801;28;20825;-75
2023/09/13 03:09:53;;;;;;;6.30;4.63;;;;;;;;;;5818855;28;20065;-74
2023/09/13 03:12:44;;;;;;;4.82;3.72;;;;;;;;;;5817746;28;20069;-74
2023/09/13 03:15:35;;;;;;;8.30;4.32;;;;;;;;;;5819711;28;20482;-74
2023/09/13 03:18:25;;;;;;;5.07;2.90;;;;;;;;;;5820053;28;20084;-75
2023/09/13 03:21:20;;;;;;;6.88;3.88;;;;;;;;;;5819989;28;20417;-74
2023/09/13 03:24:11;;;;;;;4.25;3.78;;;;;;;;;;5819673;28;20050;-74
2023/09/13 03:27:02;;;;;;;7.13;3.53;;;;;;;;;;5819756;28;20055;-74
2023/09/13 03:29:54;;;;;;;8.02;3.92;;;;;;;;;;5820084;28;20050;-74
2023/09/13 03:32:45;;;;;;;6.18;4.75;;;;;;;;;;5819529;28;20398;-74
2023/09/13 03:35:35;;;;;;;5.07;3.63;;;;;;;;;;5819573;28;20483;-73
2023/09/13 03:38:26;;;;;;;6.45;3.88;;;;;;;;;;5819355;28;20050;-74
2023/09/13 03:41:21;;;;;;;5.55;4.28;;;;;;;;;;5819440;28;20042;-76
2023/09/13 03:44:12;;;;;;;5.93;4.15;;;;;;;;;;5818929;28;20050;-74
2023/09/13 03:47:03;;;;;;;5.97;4.22;;;;;;;;;;5819137;28;20047;-74
2023/09/13 03:49:53;;;;;;;7.20;3.72;;;;;;;;;;5818320;28;20129;-74
2023/09/13 03:52:44;;;;;;;5.25;3.17;;;;;;;;;;5819122;28;20050;-73
2023/09/13 03:55:35;;;;;;;4.57;3.15;;;;;;;;;;5819002;28;20069;-74
2023/09/13 03:58:26;;;;;;;8.55;4.63;;;;;;;;;;5817802;28;20054;-74
2023/09/13 04:01:19;;;;;;;4.20;2.60;;;;;;;;;;5818830;28;20073;-74
2023/09/13 04:04:10;;;;;;;4.90;3.15;;;;;;;;;;5818951;28;20068;-75
2023/09/13 04:07:01;;;;;;;5.30;4.05;;;;;;;;;;5818893;28;20046;-83
2023/09/13 04:09:52;;;;;;;7.07;4.05;;;;;;;;;;5819204;28;20050;-78
2023/09/13 04:12:43;;;;;;;4.85;3.53;;;;;;;;;;5817209;28;20050;-75
2023/09/13 04:15:34;;;;;;;4.75;4.13;;;;;;;;;;5818389;28;20046;-75
2023/09/13 04:18:24;;;;;;;8.80;4.50;;;;;;;;;;5817201;28;20049;-73
2023/09/13 04:21:15;;;;;;;8.50;3.67;;;;;;;;;;5818664;28;20042;-75
2023/09/13 04:24:06;;;;;;;4.78;3.42;;;;;;;;;;5818491;28;20039;-74
2023/09/13 04:26:57;;;;;;;21.65;3.60;;;;;;;;;;5818119;28;20065;-74
2023/09/13 04:29:48;;;;;;;6.03;4.80;;;;;;;;;;5818132;28;20050;-74
2023/09/13 04:32:39;;;;;;;8.25;2.83;;;;;;;;;;5817214;28;20133;-74
2023/09/13 04:35:33;;;;;;;8.32;3.58;;;;;;;;;;5817038;28;20054;-73
2023/09/13 04:38:23;;;;;;;5.28;3.55;;;;;;;;;;5818232;28;20133;-74
2023/09/13 04:41:16;;;;;;;5.63;3.50;;;;;;;;;;5818216;28;20050;-73
2023/09/13 04:44:07;;;;;;;7.13;5.07;;;;;;;;;;5816679;28;20129;-75
2023/09/13 04:46:59;;;;;;;4.53;3.22;;;;;;;;;;5818878;28;20046;-75
2023/09/13 04:49:50;;;;;;;6.18;3.20;;;;;;;;;;5818042;28;20061;-74
2023/09/13 04:52:41;;;;;;;5.68;4.00;;;;;;;;;;5818220;28;20477;-73
2023/09/13 04:55:31;;;;;;;4.82;3.83;;;;;;;;;;5817992;28;20050;-75
2023/09/13 04:58:22;;;;;;;4.93;3.83;;;;;;;;;;5816899;28;20042;-74
2023/09/13 05:01:16;;;;;;;5.13;3.60;;;;;;;;;;5816618;28;20066;-73
2023/09/13 05:04:07;;;;;;;4.35;3.22;;;;;;;;;;5817658;28;20460;-74
2023/09/13 05:06:58;;;;;;;4.35;3.95;;;;;;;;;;5818641;28;20039;-73
2023/09/13 05:09:49;;;;;;;6.10;4.68;;;;;;;;;;5817832;28;20494;-75
2023/09/13 05:12:40;;;;;;;5.75;3.85;;;;;;;;;;5816744;28;20117;-74
2023/09/13 05:15:30;;;;;;;6.68;3.42;;;;;;;;;;5817593;28;20137;-74
2023/09/13 05:18:21;;;;;;;4.93;3.88;;;;;;;;;;5817840;28;20053;-76
2023/09/13 05:21:12;;;;;;;7.45;4.45;;;;;;;;;;5817902;28;20414;-73
2023/09/13 05:24:03;;;;;;;5.57;4.20;;;;;;;;;;5816559;28;20402;-74
2023/09/13 05:26:54;;;;;;;6.65;3.53;;;;;;;;;;5818243;28;20515;-77
2023/09/13 05:29:44;;;;;;;10.43;3.80;;;;;;;;;;5817777;28;20047;-74
2023/09/13 05:32:36;;;;;;;6.10;4.05;;;;;;;;;;5817718;28;20046;-73
2023/09/13 05:35:31;;;;;;;4.68;3.40;;;;;;;;;;5817573;28;20064;-76
2023/09/13 05:38:21;;;;;;;3.72;2.53;;;;;;;;;;5803860;28;20042;-75
2023/09/13 05:41:12;;;;;;;5.25;4.30;;;;;;;;;;5821849;28;20054;-74
2023/09/13 05:44:05;;;;;;;5.10;2.75;;;;;;;;;;5821856;28;20050;-74
2023/09/13 05:46:56;;;;;;;4.63;3.40;;;;;;;;;;5821103;28;20046;-74
2023/09/13 05:49:47;;;;;;;18.58;4.90;;;;;;;;;;5821583;28;20061;-74
2023/09/13 05:52:39;;;;;;;8.05;3.85;;;;;;;;;;5821599;28;20054;-77
2023/09/13 05:55:30;;;;;;;10.48;5.40;;;;;;;;;;5821786;28;20053;-74
2023/09/13 05:58:21;;;;;;;9.05;5.07;;;;;;;;;;5821699;28;20054;-74
2023/09/13 06:01:12;;;;;;;10.98;4.78;;;;;;;;;;5821618;28;20173;-74
2023/09/13 06:04:03;;;;;;;3.53;3.05;;;;;;;;;;5821636;28;20113;-75
2023/09/13 06:06:54;;;;;;;10.05;4.28;;;;;;;;;;5822132;28;20581;-74
2023/09/13 06:09:46;;;;;;;6.10;3.08;;;;;;;;;;5821458;28;20377;-76
2023/09/13 06:12:36;;;;;;;3.80;2.83;;;;;;;;;;5821202;28;20050;-74
2023/09/13 06:15:27;;;;;;;5.57;3.10;;;;;;;;;;5821470;28;20061;-75
2023/09/13 06:18:18;;;;;;;5.35;3.53;;;;;;;;;;5819883;28;20053;-74
2023/09/13 06:21:10;;;;;;;5.82;2.95;;;;;;;;;;5821125;28;20050;-74
2023/09/13 06:24:00;;;;;;;5.55;3.10;;;;;;;;;;5821284;28;20053;-76
2023/09/13 06:26:52;;;;;;;4.22;3.38;;;;;;;;;;5821529;28;20050;-74
2023/09/13 06:29:43;;;;;;;6.25;3.45;;;;;;;;;;5820826;28;20073;-76
2023/09/13 06:32:34;;;;;;;5.10;3.00;;;;;;;;;;5821183;28;20395;-75
2023/09/13 06:35:31;;;;;;;5.38;3.33;;;;;;;;;;5819813;28;20042;-78
2023/09/13 06:38:23;;;;;;;5.78;2.47;;;;;;;;;;5820997;28;20505;-76
2023/09/13 06:41:14;;;;;;;16.92;4.30;;;;;;;;;;5826085;28;20125;-74
2023/09/13 06:44:09;;;;;;;6.13;3.42;;;;;;;;;;5819493;28;20054;-75
2023/09/13 06:47:01;;;;;;;6.90;3.35;;;;;;;;;;5820959;28;20616;-77
2023/09/13 06:49:57;;;;;;;3.03;1.95;;;;;;;;;;5820088;28;20436;-75
2023/09/13 06:52:50;;;;;;;4.85;3.15;;;;;;;;;;5820574;28;20061;-75
2023/09/13 06:56:02;;;;;;;5.65;2.78;;;;;;;;;;5819830;28;20169;-76
2023/09/13 06:58:59;;;;;;;10.73;2.55;;;;;;;;;;5820596;28;20058;-75
2023/09/13 07:01:53;;;;;;;4.40;2.53;;;;;;;;;;5819964;28;20617;-75
2023/09/13 07:04:47;;;;;;;4.82;2.83;;;;;;;;;;5820405;28;20473;-76
2023/09/13 07:07:58;;;;;;;8.80;2.72;;;;;;;;;;5820508;28;20050;-75
2023/09/13 07:10:49;;;;;;;5.00;2.28;;;;;;;;;;5820150;28;20130;-75
2023/09/13 07:13:40;;;;;;;7.07;2.33;;;;;;;;;;5819872;28;20504;-76
2023/09/13 07:16:31;;;;;;;9.32;3.63;;;;;;;;;;5820228;28;20109;-76
2023/09/13 07:19:22;;;;;;;13.88;4.18;;;;;;;;;;5820047;28;20046;-76
2023/09/13 07:22:13;;;;;;;9.07;3.70;;;;;;;;;;5820068;28;20050;-74
2023/09/13 07:25:04;;;;;;;8.52;3.30;;;;;;;;;;5820052;28;20051;-75
2023/09/13 07:27:55;;;;;;;5.40;2.15;;;;;;;;;;5820470;28;20050;-75
2023/09/13 07:30:46;;;;;;;6.38;2.67;;;;;;;;;;5819665;28;20054;-75
2023/09/13 07:33:37;;;;;;;5.47;3.17;;;;;;;;;;5819696;28;20129;-76
2023/09/13 07:36:28;;;;;;;4.75;3.22;;;;;;;;;;5819754;28;20053;-75
2023/09/13 07:39:19;;;;;;;8.70;3.08;;;;;;;;;;5818269;28;20053;-75
2023/09/13 07:42:11;;;;;;;12.73;3.22;;;;;;;;;;5819615;28;20054;-75
2023/09/13 07:45:02;;;;;;;4.43;2.40;;;;;;;;;;5819356;28;20038;-76
2023/09/13 07:47:53;;;;;;;4.40;2.75;;;;;;;;;;5819873;28;20054;-77
2023/09/13 07:50:44;;;;;;;4.30;2.13;;;;;;;;;;5811012;28;20054;-75
2023/09/13 07:53:35;;;;;;;2.88;2.33;;;;;;;;;;5817862;28;20046;-75
2023/09/13 07:56:25;;;;;;;4.15;3.03;;;;;;;;;;5817843;28;20045;-76
2023/09/13 07:59:18;;;;;;;10.88;2.83;;;;;;;;;;5818942;28;20039;-75
2023/09/13 08:02:09;;;;;;;10.20;4.25;;;;;;;;;;5818930;28;20501;-75
2023/09/13 08:05:00;;;;;;;10.48;3.70;;;;;;;;;;5818102;28;20081;-76
2023/09/13 08:07:53;;;;;;;7.22;4.07;;;;;;;;;;5817983;28;20038;-74
2023/09/13 08:10:43;;;;;;;4.05;2.70;;;;;;;;;;5817345;28;20050;-76
2023/09/13 08:13:34;;;;;;;9.70;3.00;;;;;;;;;;5818548;28;20106;-76
2023/09/13 08:16:26;;;;;;;3.40;2.65;;;;;;;;;;5818680;28;20128;-76
2023/09/13 08:19:17;;;;;;;4.80;2.30;;;;;;;;;;5817438;28;20065;-75
2023/09/13 08:22:08;;;;;;;3.75;2.45;;;;;;;;;;5818592;28;20050;-77
2023/09/13 08:25:03;;;;;;;4.18;2.17;;;;;;;;;;5819168;28;20050;-76
2023/09/13 08:27:54;;;;;;;4.05;2.28;;;;;;;;;;5818630;28;20038;-75
2023/09/13 08:30:45;;;;;;;7.85;2.50;;;;;;;;;;5818460;28;20055;-75
2023/09/13 08:33:36;;;;;;;4.65;1.63;;;;;;;;;;5817402;28;20182;-74
2023/09/13 08:36:26;;;;;;;4.45;1.60;;;;;;;;;;5818687;28;20382;-76
2023/09/13 08:39:17;;;;;;;3.05;1.80;;;;;;;;;;5818012;28;20046;-74
2023/09/13 08:42:09;;;;;;;4.95;2.05;;;;;;;;;;5818094;28;20394;-75
2023/09/13 08:45:00;;;;;;;5.88;2.58;;;;;;;;;;5817069;28;20501;-76
2023/09/13 08:47:55;;;;;;;5.93;2.85;;;;;;;;;;5818742;28;20058;-75
2023/09/13 08:50:49;;;;;;;2.35;1.70;;;;;;;;;;5816432;28;20046;-74
2023/09/13 08:53:41;;;;;;;2.67;2.20;;;;;;;;;;5818009;28;20051;-76
2023/09/13 08:56:32;;;;;;;4.10;1.85;;;;;;;;;;5816972;28;20054;-75
2023/09/13 08:59:23;;;;;;;3.42;1.73;;;;;;;;;;5816813;28;20050;-74
2023/09/13 09:02:18;;;;;;;1.90;1.55;;;;;;;;;;5818220;28;20050;-75
2023/09/13 09:05:12;;;;;;;2.17;1.67;;;;;;;;;;5816713;28;20057;-75
2023/09/13 09:08:04;;;;;;;5.03;2.38;;;;;;;;;;5808270;28;20133;-74
2023/09/13 09:10:57;;;;;;;20.60;2.85;;;;;;;;;;5817135;28;20082;-75
2023/09/13 09:13:48;;;;;;;3.55;1.92;;;;;;;;;;5822175;28;20042;-75
2023/09/13 09:16:42;;;;;;;8.35;2.83;;;;;;;;;;5822423;28;20061;-74
2023/09/13 09:19:34;;;;;;;3.45;2.25;;;;;;;;;;5821019;28;20050;-75
2023/09/13 09:22:26;;;;;;;6.82;1.98;;;;;;;;;;5820983;28;20606;-75
2023/09/13 09:25:18;;;;;;;3.60;2.10;;;;;;;;;;5821270;28;20049;-75
2023/09/13 09:28:08;;;;;;;7.00;2.55;;;;;;;;;;5820935;28;20050;-75
2023/09/13 09:31:03;;;;;;;11.32;2.72;;;;;;;;;;5822911;28;20053;-75
2023/09/13 09:34:05;;;;;;;10.52;4.13;;;;;;;;;;5822512;28;20065;-75
2023/09/13 09:37:07;;;;;;;14.98;2.47;;;;;;;;;;5821182;28;20125;-76
2023/09/13 09:39:58;;;;;;;3.45;2.28;;;;;;;;;;5821158;28;20061;-75
2023/09/13 09:42:57;;;;;;;7.78;2.05;;;;;;;;;;5820421;28;20494;-77
2023/09/13 09:45:48;;;;;;;5.28;1.25;;;;;;;;;;5820807;28;20509;-74
2023/09/13 09:48:39;;;;;;;2.53;1.73;;;;;;;;;;5820661;28;20096;-75
2023/09/13 09:51:32;;;;;;;6.07;2.08;;;;;;;;;;5820123;28;20042;-73
2023/09/13 09:54:23;;;;;;;2.00;1.42;;;;;;;;;;5820201;28;20106;-75
2023/09/13 09:57:25;;;;;;;8.15;2.08;;;;;;;;;;5804427;28;20052;-76
2023/09/13 10:00:19;;;;;;;7.72;2.03;;;;;;;;;;5821704;28;20449;-75
2023/09/13 10:03:15;;;;;;;2.10;1.35;;;;;;;;;;5820361;28;20065;-74
2023/09/13 10:06:13;;;;;;;2.78;1.77;;;;;;;;;;5821745;28;20375;-76
2023/09/13 10:09:04;;;;;;;3.42;1.98;;;;;;;;;;5821716;28;20489;-76
2023/09/13 10:11:57;;;;;;;2.65;1.90;;;;;;;;;;5821812;28;20052;-76
2023/09/13 10:14:47;;;;;;;4.88;1.88;;;;;;;;;;5821310;28;20043;-76
2023/09/13 10:17:40;;;;;;;2.83;1.65;;;;;;;;;;5821189;28;20050;-75
2023/09/13 10:20:34;;;;;;;6.20;1.65;;;;;;;;;;5820160;28;20043;-76
2023/09/13 10:23:35;;;;;;;8.07;2.72;;;;;;;;;;5819902;28;20058;-76
2023/09/13 10:26:25;;;;;;;2.28;1.48;;;;;;;;;;5820089;28;20049;-76
2023/09/13 10:29:44;;;;;;;3.50;2.03;;;;;;;;;;5821239;28;20042;-75
2023/09/13 10:32:47;;;;;;;7.00;1.20;;;;;;;;;;5820826;28;20417;-75
2023/09/13 10:35:42;;;;;;;10.43;2.70;;;;;;;;;;5821058;28;20057;-76
2023/09/13 10:38:46;;;;;;;10.45;1.85;;;;;;;;;;5819593;28;20504;-76
2023/09/13 10:41:49;;;;;;;2.08;1.38;;;;;;;;;;5820731;28;20053;-76
2023/09/13 10:44:41;;;;;;;17.85;2.13;;;;;;;;;;5819184;28;20046;-74
2023/09/13 10:47:39;;;;;;;4.10;2.05;;;;;;;;;;5820554;28;20049;-75
2023/09/13 10:50:31;;;;;;;4.47;2.08;;;;;;;;;;5819270;28;20046;-76
2023/09/13 10:53:23;;;;;;;6.38;1.90;;;;;;;;;;5803616;28;20492;-75
2023/09/13 10:56:16;;;;;;;3.22;2.08;;;;;;;;;;5820510;28;20050;-75
2023/09/13 10:59:08;;;;;;;3.58;2.13;;;;;;;;;;5819172;28;20076;-75
2023/09/13 11:01:58;;;;;;;3.65;2.13;;;;;;;;;;5819579;28;20055;-75
2023/09/13 11:04:50;;;;;;;33.22;1.95;;;;;;;;;;5819253;28;20532;-76
2023/09/13 11:07:46;;;;;;;4.93;2.55;;;;;;;;;;5820178;28;20070;-75
2023/09/13 11:10:38;;;;;;;2.30;1.77;;;;;;;;;;5820204;28;20050;-75
2023/09/13 11:13:32;;;;;;;2.10;1.83;;;;;;;;;;5818848;28;20050;-76
2023/09/13 11:16:23;;;;;;;2.75;1.73;;;;;;;;;;5820068;28;20447;-76
2023/09/13 11:19:15;;;;;;;2.38;2.05;;;;;;;;;;5819851;28;20050;-76
2023/09/13 11:22:06;;;;;;;3.15;2.05;;;;;;;;;;5819736;28;20043;-75
2023/09/13 11:25:08;;;;;;;3.63;2.08;;;;;;;;;;5820572;28;20489;-75
2023/09/13 11:28:36;;;;;;;2.72;1.73;;;;;;;;;;5819495;28;20131;-75
2023/09/13 11:31:29;;;;;;;3.70;1.73;;;;;;;;;;5819766;28;20057;-75
2023/09/13 11:34:22;;;;;;;4.30;2.22;;;;;;;;;;5818179;28;20046;-74
2023/09/13 11:37:13;;;;;;;2.30;1.52;;;;;;;;;;5818565;28;20053;-76
2023/09/13 11:40:11;;;;;;;5.03;2.25;;;;;;;;;;5819714;28;20375;-76
2023/09/13 11:43:03;;;;;;;6.43;2.00;;;;;;;;;;5818244;28;20397;-76
2023/09/13 11:45:57;;;;;;;3.80;1.85;;;;;;;;;;5819948;28;20120;-77
2023/09/13 11:48:51;;;;;;;4.78;2.28;;;;;;;;;;5819422;28;20140;-74
2023/09/13 11:51:57;;;;;;;5.70;1.88;;;;;;;;;;5818139;28;20042;-76
2023/09/13 11:54:57;;;;;;;6.47;2.05;;;;;;;;;;5819665;28;20053;-75
2023/09/13 11:57:52;;;;;;;;;;;;;;;;;;5819916;28;20061;-77
2023/09/13 12:00:48;;;;;;;5.82;2.22;;;;;;;;;;5819291;28;19921;-75
2023/09/13 12:03:39;;;;;;;4.47;1.92;;;;;;;;;;5819200;28;20125;-74
2023/09/13 12:06:45;;;;;;;6.80;2.40;;;;;;;;;;5819167;28;20054;-75
2023/09/13 12:09:38;;;;;;;6.13;2.63;;;;;;;;;;5817693;28;20130;-75
2023/09/13 12:12:41;;;;;;;2.92;1.60;;;;;;;;;;5817387;28;20053;-74
2023/09/13 12:16:02;;;;;;;7.00;2.22;;;;;;;;;;5818542;28;20086;-76
2023/09/13 12:18:54;;;;;;;3.08;2.10;;;;;;;;;;5797142;28;20042;-75
2023/09/13 12:21:46;;;;;;;7.68;2.28;;;;;;;;;;5817066;28;20524;-76
2023/09/13 12:24:51;;;;;;;3.30;1.67;;;;;;;;;;5815953;28;20050;-75
2023/09/13 12:27:45;;;;;;;8.07;3.05;;;;;;;;;;5815989;28;20124;-74
2023/09/13 12:30:36;;;;;;;9.80;2.50;;;;;;;;;;5818079;28;20436;-75
2023/09/13 12:33:28;;;;;;;2.97;1.70;;;;;;;;;;5818221;28;20715;-75
2023/09/13 12:36:19;;;;;;;4.30;1.90;;;;;;;;;;5817974;28;20192;-75
2023/09/13 12:39:14;;;;;;;2.58;1.60;;;;;;;;;;5816522;28;20061;-75
2023/09/13 12:42:10;;;;;;;4.38;1.40;;;;;;;;;;5817890;28;20106;-76
2023/09/13 12:45:01;;;;;;;8.30;2.00;;;;;;;;;;5808811;28;20054;-77
2023/09/13 12:47:55;;;;;;;4.57;1.85;;;;;;;;;;5800261;28;20049;-76
2023/09/13 12:50:46;;;;;;;2.88;2.20;;;;;;;;;;5818209;28;20172;-75
2023/09/13 12:53:37;;;;;;;4.28;2.20;;;;;;;;;;5814959;28;20414;-77
2023/09/13 12:56:33;;;;;;;2.85;1.83;;;;;;;;;;5817671;28;20405;-74
2023/09/13 12:59:24;;;;;;;2.50;1.45;;;;;;;;;;5815951;28;20042;-76
2023/09/13 13:02:17;;;;;;;2.53;1.58;;;;;;;;;;5816204;28;20057;-75
2023/09/13 13:05:13;;;;;;;5.55;1.90;;;;;;;;;;5817994;28;20425;-75
2023/09/13 13:08:04;;;;;;;3.50;2.28;;;;;;;;;;5815404;28;20043;-77
2023/09/13 13:11:02;;;;;;;3.97;2.55;;;;;;;;;;5816202;28;20057;-77
2023/09/13 13:13:53;;;;;;;23.40;2.50;;;;;;;;;;5816749;28;20042;-76
2023/09/13 13:16:55;;;;;;;13.90;2.47;;;;;;;;;;5817672;28;20042;-75
2023/09/13 13:19:48;;;;;;;6.05;1.70;;;;;;;;;;5817520;28;20387;-76
2023/09/13 13:22:46;;;;;;;2.97;1.73;;;;;;;;;;5815413;28;20057;-75
2023/09/13 13:25:37;;;;;;;3.00;1.75;;;;;;;;;;5818005;28;20162;-75
2023/09/13 13:28:28;;;;;;;2.45;1.27;;;;;;;;;;5817607;28;20046;-74
2023/09/13 13:31:20;;;;;;;1.80;1.58;;;;;;;;;;5818019;28;20422;-75
2023/09/13 13:34:11;;;;;;;2.10;1.50;;;;;;;;;;5816422;28;20057;-76
2023/09/13 13:37:02;;;;;;;2.53;1.65;;;;;;;;;;5818298;28;20073;-75
2023/09/13 13:39:53;;;;;;;22.75;2.25;;;;;;;;;;5818601;28;20434;-75
2023/09/13 13:42:44;;;;;;;2.33;1.52;;;;;;;;;;5816596;28;20057;-77
2023/09/13 13:45:35;;;;;;;4.35;2.17;;;;;;;;;;5817032;28;20050;-75
2023/09/13 13:48:26;;;;;;;1.70;1.08;;;;;;;;;;5816485;28;20062;-73
2023/09/13 13:51:18;;;;;;;8.88;2.15;;;;;;;;;;5809915;28;20050;-74
2023/09/13 13:54:09;;;;;;;2.13;1.30;;;;;;;;;;5817732;28;20050;-76
2023/09/13 13:57:00;;;;;;;9.25;1.95;;;;;;;;;;5818221;28;20273;-75
2023/09/13 13:59:52;;;;;;;2.63;1.70;;;;;;;;;;5819092;28;20038;-75
2023/09/13 14:02:46;;;;;;;2.00;1.77;;;;;;;;;;5821777;28;20047;-75
2023/09/13 14:05:40;;;;;;;2.90;1.75;;;;;;;;;;5821831;28;20089;-75
2023/09/13 14:08:32;;;;;;;2.22;1.85;;;;;;;;;;5821761;28;20054;-74
2023/09/13 14:11:22;;;;;;;2.88;1.70;;;;;;;;;;5821543;28;20061;-74
2023/09/13 14:14:18;;;;;;;7.40;2.15;;;;;;;;;;5820361;28;20097;-75
2023/09/13 14:17:09;;;;;;;4.07;1.80;;;;;;;;;;5818672;28;20038;-75
2023/09/13 14:20:00;;;;;;;4.53;1.85;;;;;;;;;;5822025;28;20046;-74
2023/09/13 14:22:51;;;;;;;1.50;1.17;;;;;;;;;;5821690;28;20429;-75
2023/09/13 14:25:43;;;;;;;4.70;1.73;;;;;;;;;;5821159;28;20050;-74
2023/09/13 14:28:35;;;;;;;1.75;1.42;;;;;;;;;;5821457;28;20382;-75
2023/09/13 14:31:26;;;;;;;2.05;1.40;;;;;;;;;;5814513;28;21171;-74
2023/09/13 14:34:18;;;;;;;1.85;1.17;;;;;;;;;;5816163;28;20048;-76
2023/09/13 14:37:09;;;;;;;2.70;1.85;;;;;;;;;;5817927;28;20170;-75
2023/09/13 14:40:00;;;;;;;1.95;1.42;;;;;;;;;;5821591;28;20047;-77
2023/09/13 14:42:51;;;;;;;3.72;1.52;;;;;;;;;;5821081;28;20481;-77
2023/09/13 14:45:42;;;;;;;5.45;1.30;;;;;;;;;;5820729;28;20086;-75
2023/09/13 14:48:33;;;;;;;3.15;1.83;;;;;;;;;;5820639;28;20142;-75
2023/09/13 14:51:24;;;;;;;2.03;1.35;;;;;;;;;;5820544;28;20097;-76
2023/09/13 14:54:17;;;;;;;2.10;1.40;;;;;;;;;;5820718;28;20050;-75
2023/09/13 14:57:08;;;;;;;3.60;1.40;;;;;;;;;;5818919;28;20133;-75
2023/09/13 15:00:00;;;;;;;5.55;1.67;;;;;;;;;;5818721;28;20057;-77
2023/09/13 15:02:56;;;;;;;1.85;1.35;;;;;;;;;;5820118;28;20089;-77
2023/09/13 15:05:47;;;;;;;3.17;1.95;;;;;;;;;;5819172;28;20050;-77
2023/09/13 15:08:38;;;;;;;2.50;1.85;;;;;;;;;;5813893;28;20361;-75
2023/09/13 15:11:32;;;;;;;3.05;1.88;;;;;;;;;;5808642;28;20144;-75
2023/09/13 15:14:23;;;;;;;2.38;1.48;;;;;;;;;;5819918;28;20090;-76
2023/09/13 15:17:14;;;;;;;2.50;1.17;;;;;;;;;;5819500;28;20050;-76
2023/09/13 15:20:06;;;;;;;2.30;1.02;;;;;;;;;;5819649;28;20049;-76
2023/09/13 15:23:00;;;;;;;5.22;1.67;;;;;;;;;;5818589;28;20070;-76
2023/09/13 15:25:51;;;;;;;3.63;2.15;;;;;;;;;;5814975;28;20038;-77
2023/09/13 15:28:41;;;;;;;3.00;1.50;;;;;;;;;;5819262;28;20088;-77
2023/09/13 15:31:33;;;;;;;11.50;2.22;;;;;;;;;;5819518;28;20401;-78
2023/09/13 15:34:43;;;;;;;1.95;1.45;;;;;;;;;;5819407;28;20130;-77
2023/09/13 15:37:34;;;;;;;5.95;2.33;;;;;;;;;;5819371;28;20050;-77
2023/09/13 15:40:25;;;;;;;2.15;1.05;;;;;;;;;;5819159;28;20119;-77
2023/09/13 15:43:16;;;;;;;3.00;1.58;;;;;;;;;;5819033;28;20049;-76
2023/09/13 15:46:12;;;;;;;2.58;1.60;;;;;;;;;;5817881;28;20054;-75
2023/09/13 15:49:03;;;;;;;4.60;2.70;;;;;;;;;;5817774;28;20492;-75
2023/09/13 15:51:53;;;;;;;4.18;2.10;;;;;;;;;;5814329;28;20628;-75
2023/09/13 15:54:47;;;;;;;2.38;1.63;;;;;;;;;;5817091;28;20046;-75
2023/09/13 15:57:44;;;;;;;2.35;1.77;;;;;;;;;;5816553;28;20042;-75
2023/09/13 16:00:34;;;;;;;2.00;1.63;;;;;;;;;;5818580;28;20046;-76
2023/09/13 16:03:25;;;;;;;20.52;2.47;;;;;;;;;;5808454;28;20050;-77
2023/09/13 16:06:16;;;;;;;2.72;1.60;;;;;;;;;;5818290;28;20164;-76
2023/09/13 16:09:10;;;;;;;5.53;1.92;;;;;;;;;;5812630;28;20053;-75
2023/09/13 16:12:01;;;;;;;5.60;2.22;;;;;;;;;;5818470;28;20073;-76
2023/09/13 16:14:51;;;;;;;4.22;2.72;;;;;;;;;;5817166;28;20042;-75
2023/09/13 16:17:42;;;;;;;13.15;3.53;;;;;;;;;;5818183;28;20453;-76
2023/09/13 16:20:33;;;;;;;3.75;2.28;;;;;;;;;;5808221;28;20051;-75
2023/09/13 16:23:28;;;;;;;4.53;2.35;;;;;;;;;;5814683;28;20125;-75
2023/09/13 16:26:20;;;;;;;2.90;2.03;;;;;;;;;;5814212;28;20068;-75
2023/09/13 16:29:10;;;;;;;11.05;2.40;;;;;;;;;;5816595;28;20076;-76
2023/09/13 16:32:04;;;;;;;4.75;1.70;;;;;;;;;;5813105;28;20042;-75
2023/09/13 16:34:59;;;;;;;6.80;2.13;;;;;;;;;;5796624;28;20041;-76
2023/09/13 16:37:54;;;;;;;28.17;3.20;;;;;;;;;;5814036;28;20129;-76
2023/09/13 16:40:48;;;;;;;5.05;2.15;;;;;;;;;;5807313;28;20109;-76
2023/09/13 16:43:40;;;;;;;8.88;2.10;;;;;;;;;;5798741;28;20057;-75
2023/09/13 16:46:31;;;;;;;4.28;2.60;;;;;;;;;;5813321;28;20046;-77
2023/09/13 16:49:27;;;;;;;8.75;2.22;;;;;;;;;;5815689;28;20150;-76
2023/09/13 16:52:18;;;;;;;6.78;2.70;;;;;;;;;;5816242;28;20104;-76
2023/09/13 16:55:09;;;;;;;7.57;3.00;;;;;;;;;;5817283;28;20410;-77
2023/09/13 16:58:04;;;;;;;4.35;2.25;;;;;;;;;;5812595;28;20046;-76
2023/09/13 17:00:56;;;;;;;5.15;3.30;;;;;;;;;;5818680;28;20047;-76
2023/09/13 17:03:48;;;;;;;13.52;4.97;;;;;;;;;;5818183;28;20130;-76
2023/09/13 17:06:41;;;;;;;13.50;4.10;;;;;;;;;;5817141;28;20052;-76
2023/09/13 17:09:35;;;;;;;6.85;3.42;;;;;;;;;;5814458;28;20193;-76
2023/09/13 17:12:25;;;;;;;10.75;3.08;;;;;;;;;;5817457;28;20129;-77
2023/09/13 17:15:16;;;;;;;19.80;4.15;;;;;;;;;;5817505;28;20393;-76
2023/09/13 17:18:07;;;;;;;5.25;3.28;;;;;;;;;;5818106;28;20069;-76